createdAt,value
2019-01-08T00:00:18.208Z,99.99
2019-01-08T00:01:18.202Z,99.99
2019-01-08T00:02:18.188Z,99.99
2019-01-08T00:03:18.178Z,99.99
2019-01-08T00:04:18.165Z,99.99
2019-01-08T00:05:18.153Z,99.99
2019-01-08T00:06:18.145Z,99.99
2019-01-08T00:07:18.133Z,99.99
2019-01-08T00:08:18.121Z,99.99
2019-01-08T00:09:18.108Z,99.99
2019-01-08T00:10:20.139Z,99.99
2019-01-08T00:11:18.084Z,99.99
2019-01-08T00:12:18.063Z,99.99
2019-01-08T00:13:18.063Z,99.99
2019-01-08T00:14:18.050Z,99.99
2019-01-08T00:15:18.039Z,99.99
2019-01-08T00:16:18.032Z,99.99
2019-01-08T00:17:18.016Z,99.99
2019-01-08T00:18:18.005Z,99.99
2019-01-08T00:19:17.993Z,99.99
2019-01-08T00:20:18.018Z,99.99
2019-01-08T00:21:17.970Z,99.99
2019-01-08T00:22:17.961Z,99.99
2019-01-08T00:23:17.949Z,99.99
2019-01-08T00:24:17.933Z,99.99
2019-01-08T00:25:17.925Z,99.99
2019-01-08T00:26:17.921Z,99.99
2019-01-08T00:27:17.903Z,99.99
2019-01-08T00:28:17.892Z,99.99
2019-01-08T00:29:17.915Z,99.99
2019-01-08T00:30:17.869Z,99.99
2019-01-08T00:31:17.866Z,99.99
2019-01-08T00:32:17.844Z,99.99
2019-01-08T00:33:17.834Z,99.99
2019-01-08T00:34:17.824Z,99.99
2019-01-08T00:35:17.808Z,99.99
2019-01-08T00:36:17.799Z,99.99
2019-01-08T00:37:17.786Z,99.99
2019-01-08T00:38:17.780Z,99.99
2019-01-08T00:39:17.766Z,99.99
2019-01-08T00:40:17.755Z,99.99
2019-01-08T00:41:17.745Z,99.99
2019-01-08T00:42:17.734Z,99.99
2019-01-08T00:43:17.722Z,99.99
2019-01-08T00:44:17.709Z,99.99
2019-01-08T00:45:17.713Z,99.99
2019-01-08T00:46:17.762Z,99.99
2019-01-08T00:47:17.678Z,99.99
2019-01-08T00:48:17.666Z,99.99
2019-01-08T00:49:17.654Z,99.99
2019-01-08T00:50:17.645Z,99.99
2019-01-08T00:51:17.631Z,99.99
2019-01-08T00:52:17.619Z,99.99
2019-01-08T00:53:17.608Z,99.99
2019-01-08T00:54:17.598Z,99.99
2019-01-08T00:55:17.586Z,99.99
2019-01-08T00:56:17.578Z,99.99
2019-01-08T00:57:17.586Z,99.99
2019-01-08T00:58:17.555Z,99.99
2019-01-08T00:59:17.540Z,99.99
2019-01-08T01:00:20.225Z,99.99
2019-01-08T01:01:17.523Z,99.99
2019-01-08T01:02:17.507Z,99.99
2019-01-08T01:03:17.492Z,99.99
2019-01-08T01:04:17.483Z,99.99
2019-01-08T01:05:17.472Z,99.99
2019-01-08T01:06:17.463Z,99.99
2019-01-08T01:07:17.439Z,99.99
2019-01-08T01:08:17.438Z,99.99
2019-01-08T01:09:17.426Z,99.99
2019-01-08T01:10:17.471Z,99.99
2019-01-08T01:11:17.406Z,99.99
2019-01-08T01:12:17.387Z,99.99
2019-01-08T01:13:17.379Z,99.99
2019-01-08T01:14:17.370Z,99.99
2019-01-08T01:15:17.372Z,99.99
2019-01-08T01:16:17.367Z,99.99
2019-01-08T01:17:17.333Z,99.99
2019-01-08T01:18:17.321Z,99.99
2019-01-08T01:19:17.317Z,99.99
2019-01-08T01:20:17.299Z,99.99
2019-01-08T01:21:17.288Z,99.99
2019-01-08T01:22:17.275Z,99.99
2019-01-08T01:23:17.263Z,99.99
2019-01-08T01:24:17.253Z,99.99
2019-01-08T01:25:17.241Z,99.99
2019-01-08T01:26:17.230Z,99.99
2019-01-08T01:27:17.217Z,99.99
2019-01-08T01:28:17.206Z,99.99
2019-01-08T01:29:17.195Z,99.99
2019-01-08T01:30:17.185Z,99.99
2019-01-08T01:31:17.172Z,99.99
2019-01-08T01:32:17.162Z,99.99
2019-01-08T01:33:17.147Z,99.99
2019-01-08T01:34:17.138Z,99.99
2019-01-08T01:35:17.123Z,99.99
2019-01-08T01:36:17.113Z,99.99
2019-01-08T01:37:17.101Z,99.99
2019-01-08T01:38:17.089Z,99.99
2019-01-08T01:39:17.076Z,99.99
2019-01-08T01:40:17.064Z,99.99
2019-01-08T01:41:17.052Z,99.99
2019-01-08T01:42:17.041Z,99.99
2019-01-08T01:43:17.030Z,99.99
2019-01-08T01:44:17.018Z,99.99
2019-01-08T01:45:17.006Z,99.99
2019-01-08T01:46:17.011Z,99.99
2019-01-08T01:47:16.990Z,99.99
2019-01-08T01:48:16.980Z,99.99
2019-01-08T01:49:16.954Z,99.99
2019-01-08T01:50:18.515Z,99.99
2019-01-08T01:51:16.935Z,99.99
2019-01-08T01:52:16.923Z,99.99
2019-01-08T01:53:16.913Z,99.99
2019-01-08T01:54:16.901Z,99.99
2019-01-08T01:55:16.885Z,99.99
2019-01-08T01:56:16.878Z,99.99
2019-01-08T01:57:16.873Z,99.99
2019-01-08T01:58:16.857Z,99.99
2019-01-08T01:59:16.841Z,99.99
2019-01-08T02:00:16.830Z,99.99
2019-01-08T02:01:16.820Z,99.99
2019-01-08T02:02:16.813Z,99.99
2019-01-08T02:03:16.795Z,99.99
2019-01-08T02:04:16.783Z,99.99
2019-01-08T02:05:16.770Z,99.99
2019-01-08T02:06:16.827Z,99.99
2019-01-08T02:07:16.751Z,99.99
2019-01-08T02:08:16.736Z,99.99
2019-01-08T02:09:16.725Z,99.99
2019-01-08T02:10:16.713Z,99.99
2019-01-08T02:11:16.700Z,99.99
2019-01-08T02:12:16.688Z,99.99
2019-01-08T02:13:16.678Z,99.99
2019-01-08T02:14:16.669Z,99.99
2019-01-08T02:15:16.659Z,99.99
2019-01-08T02:16:16.640Z,99.99
2019-01-08T02:17:16.634Z,99.05
2019-01-08T02:18:16.619Z,97.82
2019-01-08T02:19:16.605Z,97.25
2019-01-08T02:20:16.594Z,96.59
2019-01-08T02:21:16.590Z,96.40
2019-01-08T02:22:16.570Z,95.45
2019-01-08T02:23:16.559Z,96.21
2019-01-08T02:24:16.547Z,99.71
2019-01-08T02:25:16.531Z,99.99
2019-01-08T02:26:16.524Z,99.99
2019-01-08T02:27:16.511Z,99.99
2019-01-08T02:28:16.501Z,99.99
2019-01-08T02:29:16.851Z,99.99
2019-01-08T02:30:16.475Z,99.99
2019-01-08T02:31:16.464Z,99.99
2019-01-08T02:32:16.453Z,99.99
2019-01-08T02:33:16.442Z,99.99
2019-01-08T02:34:16.430Z,99.99
2019-01-08T02:35:16.416Z,96.31
2019-01-08T02:36:16.406Z,65.37
2019-01-08T02:37:16.404Z,59.60
2019-01-08T02:38:16.381Z,57.23
2019-01-08T02:39:16.385Z,56.38
2019-01-08T02:40:16.443Z,58.18
2019-01-08T02:41:16.365Z,60.17
2019-01-08T02:42:16.361Z,61.77
2019-01-08T02:43:16.330Z,64.04
2019-01-08T02:44:16.345Z,66.69
2019-01-08T02:45:16.304Z,67.26
2019-01-08T02:46:16.310Z,68.40
2019-01-08T02:47:16.312Z,70.39
2019-01-08T02:48:16.265Z,71.04
2019-01-08T02:49:16.285Z,71.71
2019-01-08T02:50:16.239Z,73.69
2019-01-08T02:51:16.270Z,74.17
2019-01-08T02:52:16.217Z,75.02
2019-01-08T02:53:16.256Z,65.28
2019-01-08T02:54:16.197Z,69.34
2019-01-08T02:55:16.196Z,70.86
2019-01-08T02:56:16.164Z,71.90
2019-01-08T02:57:16.210Z,67.93
2019-01-08T02:58:16.141Z,69.34
2019-01-08T02:59:16.166Z,71.14
2019-01-08T03:00:16.124Z,69.34
2019-01-08T03:01:16.121Z,67.55
2019-01-08T03:02:16.099Z,67.45
2019-01-08T03:03:16.094Z,64.90
2019-01-08T03:04:16.073Z,63.10
2019-01-08T03:05:16.063Z,61.96
2019-01-08T03:06:16.057Z,59.98
2019-01-08T03:07:16.038Z,56.76
2019-01-08T03:08:16.025Z,51.09
2019-01-08T03:09:16.015Z,44.56
2019-01-08T03:10:16.001Z,40.01
2019-01-08T03:11:15.991Z,36.90
2019-01-08T03:12:15.968Z,34.53
2019-01-08T03:13:15.970Z,33.77
2019-01-08T03:14:15.956Z,33.01
2019-01-08T03:15:15.944Z,32.17
2019-01-08T03:16:15.923Z,31.41
2019-01-08T03:17:15.916Z,30.74
2019-01-08T03:18:15.910Z,30.18
2019-01-08T03:19:15.896Z,29.14
2019-01-08T03:20:15.888Z,27.91
2019-01-08T03:21:15.877Z,26.68
2019-01-08T03:22:15.849Z,26.11
2019-01-08T03:23:15.848Z,26.11
2019-01-08T03:24:15.825Z,25.82
2019-01-08T03:25:15.820Z,25.82
2019-01-08T03:26:15.814Z,25.45
2019-01-08T03:27:15.811Z,25.16
2019-01-08T03:28:15.790Z,24.69
2019-01-08T03:29:15.777Z,24.50
2019-01-08T03:30:15.808Z,23.84
2019-01-08T03:31:15.755Z,23.55
2019-01-08T03:32:15.763Z,22.99
2019-01-08T03:33:15.724Z,23.18
2019-01-08T03:34:15.708Z,22.99
2019-01-08T03:35:15.696Z,22.42
2019-01-08T03:36:15.694Z,22.23
2019-01-08T03:37:15.679Z,21.28
2019-01-08T03:38:15.667Z,21.19
2019-01-08T03:39:15.654Z,20.43
2019-01-08T03:40:15.645Z,20.15
2019-01-08T03:41:15.627Z,19.58
2019-01-08T03:42:15.617Z,19.01
2019-01-08T03:43:15.600Z,18.16
2019-01-08T03:44:15.590Z,17.22
2019-01-08T03:45:15.586Z,16.46
2019-01-08T03:46:15.573Z,12.11
2019-01-08T03:47:15.561Z,10.69
2019-01-08T03:48:15.570Z,9.74
2019-01-08T03:49:15.559Z,8.61
2019-01-08T03:50:15.520Z,7.66
2019-01-08T03:51:15.545Z,7.00
2019-01-08T03:52:15.518Z,5.87
2019-01-08T03:53:15.485Z,4.92
2019-01-08T03:54:15.473Z,3.22
2019-01-08T03:55:15.468Z,2.65
2019-01-08T03:56:15.461Z,1.70
2019-01-08T03:57:15.444Z,0.09
2019-01-08T03:58:15.434Z,0.00
2019-01-08T03:59:15.421Z,0.00
2019-01-08T04:00:15.428Z,0.00
2019-01-08T04:01:15.405Z,0.00
2019-01-08T04:02:15.376Z,0.00
2019-01-08T04:03:15.427Z,0.00
2019-01-08T04:04:15.362Z,0.00
2019-01-08T04:05:15.423Z,0.00
2019-01-08T04:06:15.360Z,0.00
2019-01-08T04:07:15.314Z,0.00
2019-01-08T04:08:15.334Z,0.00
2019-01-08T04:09:15.293Z,0.00
2019-01-08T04:10:15.283Z,0.00
2019-01-08T04:11:15.288Z,0.00
2019-01-08T04:12:16.046Z,0.00
2019-01-08T04:13:15.246Z,0.00
2019-01-08T04:14:15.231Z,0.00
2019-01-08T04:15:15.256Z,0.00
2019-01-08T04:16:15.210Z,0.00
2019-01-08T04:17:15.198Z,0.00
2019-01-08T04:18:15.186Z,0.00
2019-01-08T04:19:15.191Z,0.00
2019-01-08T04:20:15.219Z,0.00
2019-01-08T04:21:15.149Z,0.00
2019-01-08T04:22:15.135Z,0.00
2019-01-08T04:23:16.039Z,0.00
2019-01-08T04:24:15.120Z,0.00
2019-01-08T04:25:15.105Z,0.00
2019-01-08T04:26:15.109Z,0.00
2019-01-08T04:27:15.076Z,0.00
2019-01-08T04:28:15.069Z,0.00
2019-01-08T04:29:15.080Z,0.00
2019-01-08T04:30:15.045Z,0.00
2019-01-08T04:31:15.540Z,0.00
2019-01-08T04:32:15.037Z,0.00
2019-01-08T04:33:15.015Z,0.00
2019-01-08T04:34:14.992Z,0.00
2019-01-08T04:35:14.981Z,0.00
2019-01-08T04:36:14.982Z,0.00
2019-01-08T04:37:14.963Z,0.00
2019-01-08T04:38:14.945Z,0.00
2019-01-08T04:39:14.968Z,0.00
2019-01-08T04:40:14.929Z,0.00
2019-01-08T04:41:14.931Z,0.00
2019-01-08T04:42:14.915Z,0.00
2019-01-08T04:43:14.887Z,0.00
2019-01-08T04:44:14.878Z,0.00
2019-01-08T04:45:14.901Z,0.00
2019-01-08T04:46:14.854Z,0.00
2019-01-08T04:47:14.861Z,0.00
2019-01-08T04:48:14.830Z,0.00
2019-01-08T04:49:14.817Z,0.00
2019-01-08T04:50:14.862Z,0.00
2019-01-08T04:51:14.802Z,0.00
2019-01-08T04:52:14.786Z,0.00
2019-01-08T04:53:14.775Z,0.00
2019-01-08T04:54:14.767Z,0.00
2019-01-08T04:55:14.745Z,0.00
2019-01-08T04:56:14.735Z,0.00
2019-01-08T04:57:14.723Z,0.00
2019-01-08T04:58:14.709Z,0.00
2019-01-08T04:59:14.700Z,0.00
2019-01-08T05:00:14.690Z,0.00
2019-01-08T05:01:14.683Z,0.00
2019-01-08T05:02:14.670Z,0.00
2019-01-08T05:03:14.649Z,0.00
2019-01-08T05:04:14.662Z,0.00
2019-01-08T05:05:14.635Z,0.00
2019-01-08T05:06:14.615Z,0.00
2019-01-08T05:07:14.610Z,0.00
2019-01-08T05:08:14.637Z,0.00
2019-01-08T05:09:14.578Z,0.00
2019-01-08T05:10:14.579Z,0.00
2019-01-08T05:11:14.558Z,0.00
2019-01-08T05:12:14.544Z,0.00
2019-01-08T05:13:14.540Z,0.00
2019-01-08T05:14:14.533Z,0.00
2019-01-08T05:15:14.515Z,0.00
2019-01-08T05:16:14.503Z,0.00
2019-01-08T05:17:14.491Z,0.00
2019-01-08T05:18:14.481Z,0.00
2019-01-08T05:19:14.468Z,0.00
2019-01-08T05:20:14.456Z,0.00
2019-01-08T05:21:14.443Z,0.00
2019-01-08T05:22:14.446Z,0.00
2019-01-08T05:23:14.420Z,0.00
2019-01-08T05:24:14.408Z,0.00
2019-01-08T05:25:14.396Z,0.00
2019-01-08T05:26:14.384Z,0.00
2019-01-08T05:27:14.366Z,0.00
2019-01-08T05:28:14.364Z,0.00
2019-01-08T05:29:14.349Z,0.00
2019-01-08T05:30:14.336Z,0.00
2019-01-08T05:31:14.326Z,0.00
2019-01-08T05:32:14.338Z,0.00
2019-01-08T05:33:14.302Z,0.00
2019-01-08T05:34:14.292Z,0.00
2019-01-08T05:35:14.276Z,0.00
2019-01-08T05:36:14.269Z,0.00
2019-01-08T05:37:14.254Z,0.00
2019-01-08T05:38:14.248Z,0.00
2019-01-08T05:39:14.250Z,0.00
2019-01-08T05:40:14.252Z,0.00
2019-01-08T05:41:14.216Z,0.00
2019-01-08T05:42:14.203Z,0.00
2019-01-08T05:43:14.188Z,0.00
2019-01-08T05:44:14.175Z,0.00
2019-01-08T05:45:14.164Z,0.00
2019-01-08T05:46:14.148Z,0.00
2019-01-08T05:47:14.132Z,0.00
2019-01-08T05:48:14.132Z,0.00
2019-01-08T05:49:14.113Z,0.00
2019-01-08T05:50:14.101Z,0.00
2019-01-08T05:51:14.089Z,0.00
2019-01-08T05:52:14.076Z,0.00
2019-01-08T05:53:14.066Z,0.00
2019-01-08T05:54:14.053Z,0.00
2019-01-08T05:55:14.042Z,0.00
2019-01-08T05:56:14.029Z,0.00
2019-01-08T05:57:14.015Z,0.00
2019-01-08T05:58:14.011Z,0.00
2019-01-08T05:59:13.994Z,0.00
2019-01-08T06:00:16.519Z,0.00
2019-01-08T06:01:13.967Z,0.00
2019-01-08T06:02:13.961Z,0.00
2019-01-08T06:03:13.947Z,0.00
2019-01-08T06:04:13.940Z,0.00
2019-01-08T06:05:13.923Z,0.00
2019-01-08T06:06:13.909Z,0.00
2019-01-08T06:07:13.899Z,0.00
2019-01-08T06:08:13.888Z,0.00
2019-01-08T06:09:13.876Z,0.00
2019-01-08T06:10:13.865Z,0.00
2019-01-08T06:11:13.855Z,0.00
2019-01-08T06:12:13.840Z,0.00
2019-01-08T06:13:13.860Z,0.00
2019-01-08T06:14:13.821Z,0.00
2019-01-08T06:15:13.805Z,0.00
2019-01-08T06:16:13.794Z,0.00
2019-01-08T06:17:13.782Z,0.00
2019-01-08T06:18:13.766Z,0.00
2019-01-08T06:19:13.758Z,0.00
2019-01-08T06:20:13.747Z,0.00
2019-01-08T06:21:13.734Z,0.00
2019-01-08T06:22:13.724Z,0.00
2019-01-08T06:23:13.779Z,0.00
2019-01-08T06:24:13.698Z,0.00
2019-01-08T06:25:13.698Z,0.00
2019-01-08T06:26:13.678Z,0.00
2019-01-08T06:27:13.654Z,0.00
2019-01-08T06:28:13.652Z,0.00
2019-01-08T06:29:13.646Z,0.00
2019-01-08T06:30:13.630Z,0.00
2019-01-08T06:31:13.618Z,0.00
2019-01-08T06:32:13.603Z,0.00
2019-01-08T06:33:13.594Z,0.00
2019-01-08T06:34:13.586Z,0.00
2019-01-08T06:35:13.569Z,0.00
2019-01-08T06:36:13.557Z,0.00
2019-01-08T06:37:13.657Z,0.00
2019-01-08T06:38:15.310Z,1.23
2019-01-08T06:39:13.522Z,3.78
2019-01-08T06:40:13.532Z,6.05
2019-01-08T06:41:13.496Z,8.61
2019-01-08T06:42:13.489Z,10.88
2019-01-08T06:43:13.475Z,12.40
2019-01-08T06:44:13.462Z,13.72
2019-01-08T06:45:13.450Z,15.14
2019-01-08T06:46:13.440Z,16.56
2019-01-08T06:47:13.428Z,17.60
2019-01-08T06:48:13.421Z,19.12
2019-01-08T06:49:13.413Z,19.78
2019-01-08T06:50:13.444Z,21.20
2019-01-08T06:51:13.381Z,22.14
2019-01-08T06:52:13.369Z,23.38
2019-01-08T06:53:13.379Z,23.94
2019-01-08T06:54:13.344Z,24.42
2019-01-08T06:55:13.333Z,25.18
2019-01-08T06:56:14.670Z,26.12
2019-01-08T06:57:13.310Z,26.12
2019-01-08T06:58:13.297Z,26.97
2019-01-08T06:59:13.337Z,27.83
2019-01-08T07:00:13.275Z,28.20
2019-01-08T07:01:13.255Z,29.24
2019-01-08T07:02:13.251Z,29.91
2019-01-08T07:03:13.239Z,30.76
2019-01-08T07:04:13.230Z,31.42
2019-01-08T07:05:13.215Z,31.90
2019-01-08T07:06:13.204Z,32.46
2019-01-08T07:07:13.193Z,32.46
2019-01-08T07:08:13.180Z,33.41
2019-01-08T07:09:13.168Z,33.60
2019-01-08T07:10:13.161Z,33.88
2019-01-08T07:11:13.141Z,35.02
2019-01-08T07:12:13.133Z,35.87
2019-01-08T07:13:13.123Z,36.54
2019-01-08T07:14:13.109Z,36.72
2019-01-08T07:15:13.100Z,37.29
2019-01-08T07:16:13.086Z,37.76
2019-01-08T07:17:13.068Z,38.14
2019-01-08T07:18:13.092Z,38.81
2019-01-08T07:19:13.052Z,39.37
2019-01-08T07:20:13.040Z,39.37
2019-01-08T07:21:13.031Z,39.65
2019-01-08T07:22:13.018Z,40.22
2019-01-08T07:23:13.006Z,40.89
2019-01-08T07:24:12.992Z,41.27
2019-01-08T07:25:12.981Z,41.46
2019-01-08T07:26:12.974Z,42.69
2019-01-08T07:27:16.496Z,42.69
2019-01-08T07:28:12.946Z,43.16
2019-01-08T07:29:12.930Z,43.63
2019-01-08T07:30:12.927Z,45.05
2019-01-08T07:31:12.913Z,45.72
2019-01-08T07:32:12.900Z,46.56
2019-01-08T07:33:12.888Z,47.04
2019-01-08T07:34:12.876Z,47.61
2019-01-08T07:35:12.864Z,47.99
2019-01-08T07:36:12.853Z,48.46
2019-01-08T07:37:12.844Z,48.74
2019-01-08T07:38:12.828Z,49.31
2019-01-08T07:39:12.817Z,50.07
2019-01-08T07:40:14.167Z,50.54
2019-01-08T07:41:12.794Z,50.73
2019-01-08T07:42:12.781Z,51.68
2019-01-08T07:43:12.772Z,52.06
2019-01-08T07:44:12.757Z,52.62
2019-01-08T07:45:12.745Z,52.62
2019-01-08T07:46:12.736Z,53.28
2019-01-08T07:47:12.722Z,53.19
2019-01-08T07:48:12.714Z,54.23
2019-01-08T07:49:12.780Z,54.42
2019-01-08T07:50:12.689Z,55.27
2019-01-08T07:51:12.676Z,55.37
2019-01-08T07:52:12.665Z,57.26
2019-01-08T07:53:12.656Z,58.87
2019-01-08T07:54:12.645Z,58.87
2019-01-08T07:55:12.639Z,60.19
2019-01-08T07:56:12.619Z,61.15
2019-01-08T07:57:12.611Z,61.43
2019-01-08T07:58:12.595Z,61.90
2019-01-08T07:59:12.582Z,61.61
2019-01-08T08:00:12.574Z,62.28
2019-01-08T08:01:12.560Z,62.09
2019-01-08T08:02:12.551Z,62.56
2019-01-08T08:03:12.539Z,62.66
2019-01-08T08:04:12.526Z,62.94
2019-01-08T08:05:12.511Z,62.94
2019-01-08T08:06:12.518Z,63.42
2019-01-08T08:07:12.492Z,63.70
2019-01-08T08:08:12.483Z,63.70
2019-01-08T08:09:12.468Z,63.79
2019-01-08T08:10:12.457Z,63.89
2019-01-08T08:11:12.447Z,64.07
2019-01-08T08:12:12.435Z,63.98
2019-01-08T08:13:12.424Z,63.98
2019-01-08T08:14:12.410Z,63.70
2019-01-08T08:15:12.398Z,0.00
2019-01-08T08:16:12.387Z,0.00
2019-01-08T08:17:12.382Z,0.00
2019-01-08T08:18:12.358Z,0.00
2019-01-08T08:19:12.376Z,0.00
2019-01-08T08:20:12.344Z,0.00
2019-01-08T08:21:12.332Z,0.00
2019-01-08T08:22:12.329Z,0.00
2019-01-08T08:23:12.308Z,0.00
2019-01-08T08:24:12.294Z,0.00
2019-01-08T08:25:12.284Z,0.00
2019-01-08T08:26:12.280Z,0.00
2019-01-08T08:27:12.261Z,0.00
2019-01-08T08:28:12.252Z,0.00
2019-01-08T08:29:12.228Z,0.00
2019-01-08T08:30:12.272Z,0.00
2019-01-08T08:31:14.552Z,0.00
2019-01-08T08:32:12.205Z,0.00
2019-01-08T08:33:12.209Z,0.00
2019-01-08T08:34:12.181Z,0.00
2019-01-08T08:35:12.159Z,0.00
2019-01-08T08:36:12.161Z,0.00
2019-01-08T08:37:12.147Z,0.00
2019-01-08T08:38:12.136Z,0.00
2019-01-08T08:39:12.134Z,0.00
2019-01-08T08:40:12.118Z,0.00
2019-01-08T08:41:12.095Z,0.00
2019-01-08T08:42:12.089Z,0.00
2019-01-08T08:43:12.094Z,0.00
2019-01-08T08:44:12.068Z,0.00
2019-01-08T08:45:12.059Z,0.00
2019-01-08T08:46:12.051Z,0.00
2019-01-08T08:47:12.035Z,0.00
2019-01-08T08:48:12.016Z,0.00
2019-01-08T08:49:12.020Z,0.00
2019-01-08T08:50:12.003Z,0.00
2019-01-08T08:51:11.989Z,0.00
2019-01-08T08:52:12.008Z,0.00
2019-01-08T08:53:11.965Z,0.00
2019-01-08T08:54:11.961Z,0.00
2019-01-08T08:55:11.947Z,0.00
2019-01-08T08:56:11.934Z,0.00
2019-01-08T08:57:11.925Z,0.00
2019-01-08T08:58:11.913Z,0.00
2019-01-08T08:59:11.900Z,0.00
2019-01-08T09:00:11.887Z,0.00
2019-01-08T09:01:11.881Z,0.00
2019-01-08T09:02:11.869Z,0.00
2019-01-08T09:03:11.857Z,0.00
2019-01-08T09:04:11.886Z,0.00
2019-01-08T09:05:11.834Z,0.00
2019-01-08T09:06:11.823Z,0.00
2019-01-08T09:07:11.810Z,0.00
2019-01-08T09:08:11.810Z,0.00
2019-01-08T09:09:11.795Z,0.00
2019-01-08T09:10:11.779Z,0.00
2019-01-08T09:11:11.795Z,0.00
2019-01-08T09:12:11.767Z,0.00
2019-01-08T09:13:11.747Z,0.00
2019-01-08T09:14:11.737Z,0.00
2019-01-08T09:15:11.726Z,0.00
2019-01-08T09:16:11.713Z,0.00
2019-01-08T09:17:11.702Z,0.00
2019-01-08T09:18:11.711Z,0.00
2019-01-08T09:19:11.683Z,0.00
2019-01-08T09:20:11.669Z,0.00
2019-01-08T09:21:13.748Z,0.00
2019-01-08T09:22:11.645Z,0.00
2019-01-08T09:23:11.637Z,0.00
2019-01-08T09:24:11.624Z,0.00
2019-01-08T09:25:11.614Z,0.00
2019-01-08T09:26:11.603Z,0.00
2019-01-08T09:27:11.593Z,0.00
2019-01-08T09:28:11.585Z,0.00
2019-01-08T09:29:11.577Z,0.00
2019-01-08T09:30:11.574Z,0.00
2019-01-08T09:31:15.652Z,0.00
2019-01-08T09:32:11.537Z,0.00
2019-01-08T09:33:11.609Z,0.00
2019-01-08T09:34:11.515Z,0.00
2019-01-08T09:35:11.505Z,0.00
2019-01-08T09:36:11.495Z,0.00
2019-01-08T09:37:11.486Z,0.00
2019-01-08T09:38:11.474Z,0.00
2019-01-08T09:39:11.462Z,0.00
2019-01-08T09:40:11.449Z,0.00
2019-01-08T09:41:11.444Z,0.00
2019-01-08T09:42:11.430Z,0.00
2019-01-08T09:43:11.419Z,0.00
2019-01-08T09:44:11.412Z,0.00
2019-01-08T09:45:11.391Z,0.00
2019-01-08T09:46:11.383Z,0.00
2019-01-08T09:47:11.386Z,0.00
2019-01-08T09:48:11.367Z,0.00
2019-01-08T09:49:11.388Z,0.00
2019-01-08T09:50:11.346Z,0.00
2019-01-08T09:51:11.327Z,0.00
2019-01-08T09:52:11.321Z,0.00
2019-01-08T09:53:11.315Z,0.00
2019-01-08T09:54:11.299Z,0.00
2019-01-08T09:55:11.290Z,0.00
2019-01-08T09:56:11.266Z,0.00
2019-01-08T09:57:11.260Z,0.00
2019-01-08T09:58:11.261Z,0.00
2019-01-08T09:59:11.261Z,0.00
2019-01-08T10:00:11.235Z,0.00
2019-01-08T10:01:11.227Z,0.00
2019-01-08T10:02:11.217Z,0.00
2019-01-08T10:03:11.199Z,0.00
2019-01-08T10:04:11.193Z,0.00
2019-01-08T10:05:11.191Z,0.00
2019-01-08T10:06:11.172Z,0.00
2019-01-08T10:07:11.161Z,0.00
2019-01-08T10:08:11.150Z,0.00
2019-01-08T10:09:11.141Z,0.00
2019-01-08T10:10:11.129Z,0.00
2019-01-08T10:11:11.139Z,0.00
2019-01-08T10:12:11.107Z,0.00
2019-01-08T10:13:11.103Z,0.00
2019-01-08T10:14:11.076Z,0.00
2019-01-08T10:15:11.074Z,0.00
2019-01-08T10:16:11.069Z,0.00
2019-01-08T10:17:11.062Z,0.00
2019-01-08T10:18:11.043Z,0.00
2019-01-08T10:19:11.033Z,0.00
2019-01-08T10:20:11.023Z,0.00
2019-01-08T10:21:11.055Z,0.00
2019-01-08T10:22:11.002Z,0.00
2019-01-08T10:23:10.998Z,0.00
2019-01-08T10:24:10.980Z,0.00
2019-01-08T10:25:10.968Z,0.00
2019-01-08T10:26:10.952Z,0.00
2019-01-08T10:27:10.967Z,0.00
2019-01-08T10:28:10.938Z,0.00
2019-01-08T10:29:10.936Z,0.00
2019-01-08T10:30:10.918Z,0.00
2019-01-08T10:31:10.908Z,0.00
2019-01-08T10:32:10.897Z,0.00
2019-01-08T10:33:10.883Z,0.00
2019-01-08T10:34:10.871Z,0.00
2019-01-08T10:35:10.873Z,0.00
2019-01-08T10:36:10.857Z,0.00
2019-01-08T10:37:10.845Z,0.00
2019-01-08T10:38:10.836Z,0.00
2019-01-08T10:39:10.823Z,0.00
2019-01-08T10:40:10.816Z,0.00
2019-01-08T10:41:10.824Z,0.00
2019-01-08T10:42:10.793Z,0.00
2019-01-08T10:43:10.783Z,0.00
2019-01-08T10:44:10.774Z,0.00
2019-01-08T10:45:10.756Z,0.00
2019-01-08T10:46:10.755Z,0.00
2019-01-08T10:47:10.749Z,0.00
2019-01-08T10:48:10.733Z,0.00
2019-01-08T10:49:10.725Z,0.00
2019-01-08T10:50:10.716Z,0.00
2019-01-08T10:51:10.782Z,0.00
2019-01-08T10:52:10.697Z,0.00
2019-01-08T10:53:10.684Z,0.00
2019-01-08T10:54:10.678Z,0.00
2019-01-08T10:55:10.675Z,0.00
2019-01-08T10:56:10.659Z,0.00
2019-01-08T10:57:10.647Z,0.00
2019-01-08T10:58:10.637Z,0.00
2019-01-08T10:59:10.636Z,0.00
2019-01-08T11:00:10.629Z,0.00
2019-01-08T11:01:10.609Z,0.00
2019-01-08T11:02:10.660Z,0.00
2019-01-08T11:03:10.589Z,0.00
2019-01-08T11:04:10.580Z,0.00
2019-01-08T11:05:10.571Z,0.00
2019-01-08T11:06:10.575Z,0.00
2019-01-08T11:07:10.551Z,0.00
2019-01-08T11:08:10.542Z,0.00
2019-01-08T11:09:10.544Z,0.00
2019-01-08T11:10:10.524Z,0.00
2019-01-08T11:11:10.512Z,0.00
2019-01-08T11:12:10.504Z,0.00
2019-01-08T11:13:10.494Z,0.00
2019-01-08T11:14:10.484Z,0.00
2019-01-08T11:15:10.473Z,0.00
2019-01-08T11:16:10.464Z,0.00
2019-01-08T11:17:10.453Z,0.00
2019-01-08T11:18:10.446Z,0.00
2019-01-08T11:19:10.435Z,0.00
2019-01-08T11:20:10.427Z,0.00
2019-01-08T11:21:10.418Z,0.00
2019-01-08T11:22:10.407Z,0.00
2019-01-08T11:23:10.397Z,0.00
2019-01-08T11:24:10.387Z,0.00
2019-01-08T11:25:10.379Z,0.00
2019-01-08T11:26:10.370Z,0.00
2019-01-08T11:27:10.358Z,0.00
2019-01-08T11:28:10.351Z,0.00
2019-01-08T11:29:10.338Z,0.00
2019-01-08T11:30:10.327Z,0.00
2019-01-08T11:31:10.322Z,0.00
2019-01-08T11:32:10.310Z,0.00
2019-01-08T11:33:10.300Z,0.00
2019-01-08T11:34:10.290Z,0.00
2019-01-08T11:35:10.279Z,0.00
2019-01-08T11:36:10.267Z,0.00
2019-01-08T11:37:10.257Z,0.00
2019-01-08T11:38:10.248Z,0.00
2019-01-08T11:39:10.744Z,0.00
2019-01-08T11:40:10.230Z,0.00
2019-01-08T11:41:10.216Z,0.00
2019-01-08T11:42:10.216Z,0.00
2019-01-08T11:43:10.201Z,0.00
2019-01-08T11:44:10.190Z,0.00
2019-01-08T11:45:10.182Z,0.00
2019-01-08T11:46:10.172Z,0.00
2019-01-08T11:47:10.162Z,0.00
2019-01-08T11:48:10.148Z,0.00
2019-01-08T11:49:10.143Z,0.00
2019-01-08T11:50:10.133Z,0.00
2019-01-08T11:51:10.123Z,0.00
2019-01-08T11:52:10.167Z,0.00
2019-01-08T11:53:12.175Z,0.00
2019-01-08T11:54:10.095Z,0.00
2019-01-08T11:55:10.083Z,0.00
2019-01-08T11:56:10.077Z,0.00
2019-01-08T11:57:10.066Z,0.00
2019-01-08T11:58:10.058Z,0.00
2019-01-08T11:59:10.054Z,0.00
2019-01-08T12:00:10.034Z,0.00
2019-01-08T12:01:10.029Z,0.00
2019-01-08T12:02:10.018Z,0.00
2019-01-08T12:03:10.014Z,0.00
2019-01-08T12:04:10.000Z,0.00
2019-01-08T12:05:09.990Z,0.00
2019-01-08T12:06:09.979Z,0.00
2019-01-08T12:07:09.971Z,0.00
2019-01-08T12:08:09.962Z,0.00
2019-01-08T12:09:09.956Z,0.00
2019-01-08T12:10:09.944Z,0.00
2019-01-08T12:11:09.954Z,0.00
2019-01-08T12:12:09.926Z,0.00
2019-01-08T12:13:09.906Z,0.00
2019-01-08T12:14:09.912Z,0.00
2019-01-08T12:15:09.895Z,0.00
2019-01-08T12:16:09.893Z,0.00
2019-01-08T12:17:09.879Z,0.00
2019-01-08T12:18:09.869Z,0.00
2019-01-08T12:19:09.861Z,0.00
2019-01-08T12:20:09.852Z,0.00
2019-01-08T12:21:09.843Z,0.00
2019-01-08T12:22:09.833Z,0.00
2019-01-08T12:23:09.821Z,0.00
2019-01-08T12:24:09.820Z,0.00
2019-01-08T12:25:09.816Z,0.00
2019-01-08T12:26:09.796Z,0.00
2019-01-08T12:27:09.787Z,0.00
2019-01-08T12:28:09.775Z,0.00
2019-01-08T12:29:09.765Z,0.00
2019-01-08T12:30:09.760Z,0.00
2019-01-08T12:31:09.747Z,0.00
2019-01-08T12:32:09.738Z,0.00
2019-01-08T12:33:09.730Z,0.00
2019-01-08T12:34:09.718Z,0.00
2019-01-08T12:35:09.714Z,0.00
2019-01-08T12:36:09.699Z,0.00
2019-01-08T12:37:09.689Z,0.00
2019-01-08T12:38:09.680Z,0.00
2019-01-08T12:39:09.669Z,0.00
2019-01-08T12:40:09.659Z,0.00
2019-01-08T12:41:09.667Z,0.00
2019-01-08T12:42:09.640Z,0.00
2019-01-08T12:43:09.676Z,0.00
2019-01-08T12:44:09.621Z,0.00
2019-01-08T12:45:09.612Z,0.00
2019-01-08T12:46:09.604Z,0.00
2019-01-08T12:47:09.592Z,0.00
2019-01-08T12:48:09.582Z,0.00
2019-01-08T12:49:09.574Z,0.00
2019-01-08T12:50:09.566Z,0.00
2019-01-08T12:51:09.554Z,0.00
2019-01-08T12:52:09.542Z,0.00
2019-01-08T12:53:09.533Z,0.00
2019-01-08T12:54:09.530Z,0.00
2019-01-08T12:55:09.522Z,0.00
2019-01-08T12:56:09.508Z,0.00
2019-01-08T12:57:09.498Z,0.00
2019-01-08T12:58:09.488Z,0.00
2019-01-08T12:59:09.478Z,0.00
2019-01-08T13:00:09.467Z,0.00
2019-01-08T13:01:09.459Z,0.00
2019-01-08T13:02:14.561Z,0.00
2019-01-08T13:03:09.441Z,0.00
2019-01-08T13:04:09.430Z,0.00
2019-01-08T13:05:09.419Z,0.00
2019-01-08T13:06:09.423Z,0.00
2019-01-08T13:07:09.406Z,0.00